Time;durP1;ratioP1;P1;durP2;ratioP2;P2;SDS_P1;SDS_P2;PMS_P1;PMS_P2;Temp;Humidity;BMP_temperature;BMP_pressure;BME280_temperature;BME280_humidity;BME280_pressure;Samples;Min_cycle;Max_cycle;Signal;HPM_P1;HPM_P2
2023/05/20 00:00:06;;;;;;;9.35;3.53;;;11.20;99.90;;;;;;4983922;28;20153;-67
2023/05/20 00:02:32;;;;;;;12.95;4.28;;;11.20;99.90;;;;;;4973675;28;20033;-65
2023/05/20 00:04:58;;;;;;;9.07;3.63;;;11.10;99.90;;;;;;4985364;28;20053;-64
2023/05/20 00:07:24;;;;;;;10.35;3.85;;;11.20;1.00;;;;;;4969558;28;20473;-66
2023/05/20 00:09:50;;;;;;;10.70;3.83;;;11.20;1.00;;;;;;4971579;28;20389;-65
2023/05/20 00:12:15;;;;;;;13.73;4.28;;;11.10;1.00;;;;;;4971444;28;20129;-66
2023/05/20 00:14:41;;;;;;;14.52;4.38;;;11.20;1.00;;;;;;4988100;28;20154;-65
2023/05/20 00:17:07;;;;;;;14.15;4.13;;;11.20;1.00;;;;;;4966189;28;20046;-67
2023/05/20 00:19:32;;;;;;;8.88;3.45;;;11.10;1.00;;;;;;5006817;28;20116;-65
2023/05/20 00:21:58;;;;;;;13.70;3.72;;;11.10;1.00;;;;;;4983440;28;20556;-65
2023/05/20 00:24:24;;;;;;;13.07;4.03;;;11.20;1.00;;;;;;4989179;28;20041;-65
2023/05/20 00:26:50;;;;;;;10.40;3.88;;;11.20;1.00;;;;;;4988365;28;20080;-64
2023/05/20 00:29:16;;;;;;;11.73;3.80;;;11.20;1.00;;;;;;4986413;28;20038;-65
2023/05/20 00:31:41;;;;;;;11.30;3.80;;;11.20;1.00;;;;;;4969216;28;20042;-66
2023/05/20 00:34:07;;;;;;;12.30;4.35;;;11.20;1.00;;;;;;4988116;28;20084;-65
2023/05/20 00:36:34;;;;;;;10.23;4.30;;;11.10;1.00;;;;;;4983406;28;20041;-65
2023/05/20 00:39:00;;;;;;;11.40;4.60;;;11.10;1.00;;;;;;5003588;28;20666;-65
2023/05/20 00:41:26;;;;;;;10.18;3.80;;;11.10;1.00;;;;;;4970165;28;20049;-65
2023/05/20 00:43:55;;;;;;;9.05;3.95;;;11.10;1.00;;;;;;4966913;28;20049;-66
2023/05/20 00:46:22;;;;;;;10.55;4.25;;;11.10;1.00;;;;;;4985101;28;20069;-67
2023/05/20 00:48:49;;;;;;;10.45;4.47;;;11.10;1.00;;;;;;4985638;28;20072;-65
2023/05/20 00:51:15;;;;;;;10.20;3.90;;;11.00;1.00;;;;;;4982462;28;20860;-67
2023/05/20 00:53:42;;;;;;;14.45;3.75;;;11.00;1.00;;;;;;4988079;28;20035;-65
2023/05/20 00:56:08;;;;;;;13.02;3.63;;;11.00;1.00;;;;;;4987508;28;20178;-65
2023/05/20 00:58:36;;;;;;;9.57;3.80;;;11.10;1.00;;;;;;4986814;28;20042;-65
2023/05/20 01:01:02;;;;;;;10.82;4.38;;;11.00;1.00;;;;;;4970045;28;20042;-64
2023/05/20 01:03:28;;;;;;;7.63;4.05;;;11.00;1.00;;;;;;4985376;28;20515;-65
2023/05/20 01:05:54;;;;;;;8.25;4.18;;;10.90;1.00;;;;;;4970682;28;20437;-66
2023/05/20 01:08:27;;;;;;;14.90;4.53;;;10.90;1.00;;;;;;5005018;28;20037;-66
2023/05/20 01:11:06;;;;;;;8.73;4.60;;;10.90;1.00;;;;;;4972788;28;20112;-66
2023/05/20 01:13:42;;;;;;;8.50;4.00;;;10.80;1.00;;;;;;4985897;28;20546;-65
2023/05/20 01:16:10;;;;;;;11.02;4.32;;;10.70;1.00;;;;;;4968299;28;20046;-64
2023/05/20 01:18:38;;;;;;;10.30;4.85;;;10.80;1.00;;;;;;4982917;28;20046;-64
2023/05/20 01:21:06;;;;;;;11.57;4.40;;;10.80;1.00;;;;;;4985607;28;20062;-65
2023/05/20 01:23:41;;;;;;;12.95;4.18;;;10.80;1.00;;;;;;4984225;28;20110;-65
2023/05/20 01:26:07;;;;;;;11.23;4.63;;;10.70;1.00;;;;;;4986537;28;20054;-66
2023/05/20 01:28:35;;;;;;;9.10;3.78;;;10.70;1.00;;;;;;4984188;28;20048;-66
2023/05/20 01:31:04;;;;;;;8.93;4.10;;;10.70;1.00;;;;;;4985490;28;20508;-65
2023/05/20 01:33:32;;;;;;;11.45;4.13;;;10.80;1.00;;;;;;5001832;28;20064;-65
2023/05/20 01:35:58;;;;;;;8.80;3.75;;;10.80;1.00;;;;;;4981121;28;20046;-65
2023/05/20 01:38:24;;;;;;;8.93;4.15;;;10.80;1.00;;;;;;5001781;28;20060;-64
2023/05/20 01:40:52;;;;;;;10.13;4.38;;;10.70;1.00;;;;;;4957732;28;20050;-65
2023/05/20 01:43:18;;;;;;;10.18;4.85;;;10.70;1.00;;;;;;4970992;28;20448;-66
2023/05/20 01:46:21;;;;;;;7.75;4.10;;;10.60;1.00;;;;;;4985032;28;20050;-65
2023/05/20 01:49:08;;;;;;;10.30;3.83;;;10.60;1.00;;;;;;4984873;28;20397;-66
2023/05/20 01:51:34;;;;;;;9.63;4.22;;;10.60;1.00;;;;;;5010505;28;20798;-65
2023/05/20 01:53:59;;;;;;;5.95;3.63;;;10.50;1.00;;;;;;4988037;28;20129;-65
2023/05/20 01:56:25;;;;;;;8.80;4.00;;;10.50;1.00;;;;;;4986803;28;20459;-64
2023/05/20 01:58:51;;;;;;;9.43;3.78;;;10.40;1.00;;;;;;4985442;28;20342;-65
2023/05/20 02:01:16;;;;;;;10.20;4.25;;;10.50;1.00;;;;;;4989255;28;20154;-68
2023/05/20 02:03:43;;;;;;;10.27;3.85;;;10.50;1.00;;;;;;4987440;28;20069;-65
2023/05/20 02:06:10;;;;;;;9.20;3.78;;;10.50;1.00;;;;;;4973822;28;20046;-64
2023/05/20 02:08:36;;;;;;;8.38;3.40;;;10.50;1.00;;;;;;4985235;28;20049;-66
2023/05/20 02:11:02;;;;;;;8.70;3.83;;;10.50;1.00;;;;;;4987152;28;20281;-65
2023/05/20 02:13:28;;;;;;;7.43;3.20;;;10.50;1.00;;;;;;4984251;28;20042;-66
2023/05/20 02:15:54;;;;;;;10.02;3.58;;;10.50;1.00;;;;;;4990629;28;20042;-65
2023/05/20 02:18:19;;;;;;;6.80;3.17;;;10.50;1.00;;;;;;4971841;28;20042;-65
2023/05/20 02:20:45;;;;;;;11.68;2.97;;;10.50;1.00;;;;;;4971540;28;20042;-65
2023/05/20 02:23:11;;;;;;;6.05;2.95;;;10.40;1.00;;;;;;4986188;28;20039;-65
2023/05/20 02:25:36;;;;;;;8.05;2.78;;;10.40;1.00;;;;;;4990376;28;20073;-66
2023/05/20 02:28:04;;;;;;;7.60;3.00;;;10.40;1.00;;;;;;4986460;28;20080;-64
2023/05/20 02:30:30;;;;;;;6.88;2.70;;;10.40;1.00;;;;;;4969212;28;20225;-64
2023/05/20 02:32:56;;;;;;;7.35;2.70;;;10.30;1.00;;;;;;4987528;28;20041;-67
2023/05/20 02:35:22;;;;;;;7.10;3.00;;;10.30;1.00;;;;;;4986971;28;20070;-65
2023/05/20 02:37:48;;;;;;;5.30;2.80;;;10.40;1.00;;;;;;4989398;28;20431;-65
2023/05/20 02:40:13;;;;;;;5.65;2.38;;;10.40;1.00;;;;;;4989696;28;20057;-65
2023/05/20 02:42:40;;;;;;;6.47;2.35;;;10.40;1.00;;;;;;4989009;28;20049;-65
2023/05/20 02:45:06;;;;;;;5.10;1.98;;;10.40;1.00;;;;;;4987069;28;20038;-66
2023/05/20 02:47:32;;;;;;;6.63;1.83;;;10.40;1.00;;;;;;4991506;28;20152;-65
2023/05/20 02:49:58;;;;;;;5.43;1.77;;;10.30;1.00;;;;;;4983718;28;20505;-67
2023/05/20 02:52:23;;;;;;;4.18;1.40;;;10.30;1.00;;;;;;4987024;28;20073;-64
2023/05/20 02:54:49;;;;;;;6.88;1.98;;;10.40;1.00;;;;;;4990308;28;20038;-65
2023/05/20 02:57:15;;;;;;;6.15;1.90;;;10.40;1.00;;;;;;4987453;28;20488;-65
2023/05/20 02:59:41;;;;;;;7.60;1.40;;;10.40;1.00;;;;;;4989083;28;20267;-64
2023/05/20 03:02:06;;;;;;;6.47;1.50;;;10.60;1.00;;;;;;4988872;28;20104;-65
2023/05/20 03:04:32;;;;;;;4.65;1.42;;;10.70;1.00;;;;;;4986564;28;20100;-65
2023/05/20 03:06:58;;;;;;;2.88;1.13;;;10.80;1.00;;;;;;4989835;28;20050;-65
2023/05/20 03:09:24;;;;;;;4.15;1.27;;;10.90;99.90;;;;;;4991061;28;20121;-65
2023/05/20 03:11:49;;;;;;;3.72;1.00;;;10.90;99.90;;;;;;4990676;28;20768;-64
2023/05/20 03:14:15;;;;;;;4.53;1.35;;;11.00;99.90;;;;;;4988241;28;20042;-64
2023/05/20 03:16:41;;;;;;;6.25;1.20;;;11.00;99.90;;;;;;4986314;28;20038;-64
2023/05/20 03:19:07;;;;;;;4.38;1.05;;;11.00;99.90;;;;;;4968872;28;20252;-68
2023/05/20 03:21:33;;;;;;;5.30;0.82;;;11.10;99.90;;;;;;4973275;28;20129;-65
2023/05/20 03:23:58;;;;;;;2.85;1.10;;;11.10;99.90;;;;;;4988699;28;20073;-65
2023/05/20 03:26:24;;;;;;;4.07;1.10;;;11.20;99.90;;;;;;4971017;28;20081;-66
2023/05/20 03:28:50;;;;;;;3.60;0.88;;;11.20;99.90;;;;;;4986621;28;20038;-68
2023/05/20 03:31:16;;;;;;;2.65;0.73;;;11.20;99.90;;;;;;5019929;28;20030;-66
2023/05/20 03:33:42;;;;;;;4.25;1.00;;;11.20;99.90;;;;;;4990533;28;20396;-65
2023/05/20 03:36:07;;;;;;;5.82;0.77;;;11.20;99.90;;;;;;4972042;28;20409;-66
2023/05/20 03:38:33;;;;;;;3.78;0.90;;;11.20;99.90;;;;;;4973590;28;20364;-65
2023/05/20 03:40:59;;;;;;;5.78;0.95;;;11.30;99.90;;;;;;4974827;28;20054;-68
2023/05/20 03:43:25;;;;;;;2.78;0.60;;;11.30;99.90;;;;;;5003870;28;20030;-66
2023/05/20 03:45:51;;;;;;;4.80;0.98;;;11.30;99.90;;;;;;4987785;28;20403;-66
2023/05/20 03:48:17;;;;;;;4.47;0.68;;;11.30;99.90;;;;;;4990969;28;20052;-65
2023/05/20 03:50:42;;;;;;;3.40;0.75;;;11.20;99.90;;;;;;4989199;28;20100;-66
2023/05/20 03:53:08;;;;;;;2.72;0.70;;;11.20;99.90;;;;;;4971271;28;20051;-66
2023/05/20 03:55:34;;;;;;;2.53;0.60;;;11.20;99.90;;;;;;4990285;28;20076;-65
2023/05/20 03:58:00;;;;;;;2.97;0.68;;;11.20;99.90;;;;;;4990478;28;20037;-67
2023/05/20 04:00:26;;;;;;;3.75;0.70;;;11.20;99.90;;;;;;4990898;28;20493;-65
2023/05/20 04:02:52;;;;;;;3.58;0.70;;;11.20;99.90;;;;;;4993857;28;20053;-67
2023/05/20 04:05:18;;;;;;;1.85;0.60;;;11.10;99.90;;;;;;4970180;28;20704;-66
2023/05/20 04:07:43;;;;;;;3.00;0.80;;;11.10;99.90;;;;;;4957111;28;20077;-67
2023/05/20 04:10:10;;;;;;;2.25;0.50;;;11.10;99.90;;;;;;4980648;28;20472;-66
2023/05/20 04:12:37;;;;;;;1.55;0.50;;;11.10;99.90;;;;;;5000497;28;20579;-67
2023/05/20 04:15:03;;;;;;;2.40;0.50;;;11.20;99.90;;;;;;4974812;28;20052;-65
2023/05/20 04:17:30;;;;;;;2.58;0.50;;;11.20;99.90;;;;;;4986456;28;20559;-65
2023/05/20 04:19:58;;;;;;;3.35;0.70;;;11.20;99.90;;;;;;4982281;28;20104;-65
2023/05/20 04:22:25;;;;;;;2.78;0.60;;;11.30;99.90;;;;;;4981525;28;20496;-65
2023/05/20 04:24:51;;;;;;;2.25;0.60;;;11.40;99.90;;;;;;4975322;28;20385;-66
2023/05/20 04:27:17;;;;;;;2.58;0.50;;;11.40;99.90;;;;;;4989543;28;20452;-65
2023/05/20 04:29:46;;;;;;;2.58;0.50;;;11.50;99.90;;;;;;4989410;28;20046;-64
2023/05/20 04:32:13;;;;;;;1.80;0.50;;;11.60;99.90;;;;;;4987440;28;20053;-66
2023/05/20 04:34:39;;;;;;;6.28;0.55;;;11.60;99.90;;;;;;4985228;28;20531;-65
2023/05/20 04:37:06;;;;;;;3.40;0.70;;;11.60;99.90;;;;;;4989489;28;20133;-65
2023/05/20 04:39:32;;;;;;;2.95;0.45;;;11.70;99.90;;;;;;5027494;28;20096;-65
2023/05/20 04:41:58;;;;;;;3.08;0.40;;;11.80;99.90;;;;;;4988116;28;20061;-67
2023/05/20 04:44:25;;;;;;;4.53;0.43;;;11.90;99.90;;;;;;4987280;28;20050;-64
2023/05/20 04:46:51;;;;;;;2.80;0.50;;;11.90;99.90;;;;;;4988169;28;20493;-66
2023/05/20 04:49:17;;;;;;;2.13;0.43;;;12.00;99.90;;;;;;4979505;28;20045;-67
2023/05/20 04:51:43;;;;;;;2.50;0.65;;;11.90;99.90;;;;;;4985754;28;20038;-66
2023/05/20 04:54:08;;;;;;;2.30;0.50;;;11.90;99.90;;;;;;4990322;28;20046;-64
2023/05/20 04:56:35;;;;;;;1.85;0.40;;;11.90;99.90;;;;;;4974078;28;20092;-66
2023/05/20 04:59:00;;;;;;;1.52;0.40;;;11.90;99.90;;;;;;4988506;28;20046;-67
2023/05/20 05:01:26;;;;;;;1.95;0.40;;;11.80;99.90;;;;;;4973279;28;20029;-65
2023/05/20 05:03:52;;;;;;;1.75;0.40;;;11.70;99.90;;;;;;4987118;28;20128;-64
2023/05/20 05:06:17;;;;;;;2.25;0.40;;;11.60;99.90;;;;;;4986879;28;20046;-67
2023/05/20 05:08:43;;;;;;;1.83;0.43;;;11.50;99.90;;;;;;4987345;28;20434;-64
2023/05/20 05:11:09;;;;;;;1.45;0.40;;;11.50;99.90;;;;;;4981695;28;20042;-67
2023/05/20 05:13:34;;;;;;;2.35;0.50;;;11.50;99.90;;;;;;4976872;28;20030;-66
2023/05/20 05:16:01;;;;;;;2.80;0.40;;;11.50;99.90;;;;;;4985785;28;20038;-65
2023/05/20 05:18:27;;;;;;;2.25;0.40;;;11.50;99.90;;;;;;4989455;28;20069;-65
2023/05/20 05:21:00;;;;;;;3.80;0.47;;;11.40;99.90;;;;;;4985764;28;20496;-65
2023/05/20 05:23:26;;;;;;;3.58;0.60;;;11.40;99.90;;;;;;5019741;28;20121;-66
2023/05/20 05:25:52;;;;;;;2.10;0.50;;;11.40;99.90;;;;;;4988236;28;20072;-65
2023/05/20 05:28:18;;;;;;;1.92;0.40;;;11.40;99.90;;;;;;4975073;28;20532;-65
2023/05/20 05:30:43;;;;;;;1.80;0.40;;;11.70;99.90;;;;;;4986642;28;20133;-65
2023/05/20 05:33:10;;;;;;;3.05;0.50;;;12.10;76.60;;;;;;4992212;28;20831;-65
2023/05/20 05:35:36;;;;;;;2.80;0.40;;;12.40;97.20;;;;;;4995378;28;20042;-64
2023/05/20 05:38:02;;;;;;;2.60;0.40;;;12.60;59.60;;;;;;4989250;28;20126;-65
2023/05/20 05:40:27;;;;;;;3.25;0.47;;;12.80;50.70;;;;;;4974171;28;20053;-65
2023/05/20 05:42:53;;;;;;;2.28;0.30;;;13.00;31.80;;;;;;4973573;28;20647;-64
2023/05/20 05:45:19;;;;;;;2.78;0.32;;;13.10;24.20;;;;;;4983562;28;20037;-68
2023/05/20 05:47:44;;;;;;;0.93;0.40;;;13.20;1.00;;;;;;4991025;28;20076;-65
2023/05/20 05:50:10;;;;;;;4.18;0.50;;;13.30;1.00;;;;;;4985243;28;20181;-65
2023/05/20 05:52:36;;;;;;;3.78;0.40;;;13.30;1.00;;;;;;4987484;28;20362;-65
2023/05/20 05:55:02;;;;;;;3.58;0.40;;;13.50;1.00;;;;;;4974759;28;20042;-67
2023/05/20 05:57:27;;;;;;;1.77;0.40;;;13.40;1.00;;;;;;4970623;28;20046;-64
2023/05/20 05:59:53;;;;;;;1.38;0.40;;;13.60;1.00;;;;;;4987285;28;20361;-64
2023/05/20 06:02:19;;;;;;;1.52;0.38;;;13.70;1.00;;;;;;4986821;28;20058;-65
2023/05/20 06:04:45;;;;;;;2.25;0.30;;;13.80;1.00;;;;;;4988165;28;20281;-66
2023/05/20 06:07:12;;;;;;;1.42;0.47;;;13.90;1.00;;;;;;4988040;28;20047;-64
2023/05/20 06:09:38;;;;;;;1.70;0.30;;;14.00;99.90;;;;;;4973181;28;20050;-65
2023/05/20 06:12:04;;;;;;;1.65;0.57;;;14.00;1.00;;;;;;4970689;28;20034;-65
2023/05/20 06:14:31;;;;;;;2.92;0.40;;;14.10;99.90;;;;;;4994994;28;20037;-65
2023/05/20 06:16:57;;;;;;;4.85;0.68;;;14.10;99.90;;;;;;4986044;28;20064;-66
2023/05/20 06:19:22;;;;;;;2.08;0.40;;;14.20;99.90;;;;;;4986527;28;20042;-64
2023/05/20 06:21:48;;;;;;;1.33;0.30;;;14.20;99.90;;;;;;5002222;28;20077;-67
2023/05/20 06:24:14;;;;;;;1.50;0.30;;;14.40;99.90;;;;;;4989318;28;20054;-64
2023/05/20 06:26:40;;;;;;;3.42;0.38;;;14.50;99.90;;;;;;4989064;28;20160;-65
2023/05/20 06:29:08;;;;;;;2.10;0.40;;;14.60;99.90;;;;;;4988444;28;20081;-64
2023/05/20 06:31:34;;;;;;;3.05;0.30;;;14.70;99.90;;;;;;4972053;28;20125;-64
2023/05/20 06:34:00;;;;;;;3.30;0.47;;;14.80;99.90;;;;;;4982696;28;20042;-64
2023/05/20 06:36:27;;;;;;;1.80;0.30;;;14.80;99.90;;;;;;4983900;28;20080;-66
2023/05/20 06:38:52;;;;;;;3.63;0.40;;;14.90;99.90;;;;;;4984779;28;20062;-64
2023/05/20 06:41:18;;;;;;;1.33;0.30;;;15.10;99.90;;;;;;4988935;28;20054;-65
2023/05/20 06:43:45;;;;;;;2.40;0.40;;;15.20;99.90;;;;;;4993330;28;20508;-65
2023/05/20 06:46:11;;;;;;;4.03;0.93;;;15.20;99.90;;;;;;4985966;28;20056;-65
2023/05/20 06:48:36;;;;;;;4.28;0.47;;;15.30;99.90;;;;;;4966827;28;20413;-65
2023/05/20 06:51:03;;;;;;;4.03;0.40;;;15.40;99.90;;;;;;4965845;28;20694;-66
2023/05/20 06:53:29;;;;;;;2.88;0.40;;;15.40;99.90;;;;;;4969675;28;20049;-65
2023/05/20 06:55:55;;;;;;;2.65;0.40;;;15.50;99.90;;;;;;4983206;28;20046;-69
2023/05/20 06:58:20;;;;;;;3.60;0.40;;;15.60;99.90;;;;;;4977424;28;20061;-65
2023/05/20 07:01:07;;;;;;;1.80;0.47;;;15.80;99.90;;;;;;4977747;28;20042;-65
2023/05/20 07:03:33;;;;;;;3.15;0.40;;;15.90;99.90;;;;;;4983565;28;20499;-64
2023/05/20 07:05:58;;;;;;;2.05;0.38;;;16.00;99.90;;;;;;4987095;28;20038;-65
2023/05/20 07:08:24;;;;;;;1.42;0.30;;;16.00;99.90;;;;;;4963569;28;20133;-66
2023/05/20 07:10:50;;;;;;;2.10;0.30;;;16.10;99.90;;;;;;4969163;28;20042;-66
2023/05/20 07:13:16;;;;;;;1.75;0.30;;;16.20;99.90;;;;;;4966755;28;20387;-65
2023/05/20 07:15:46;;;;;;;3.00;0.30;;;16.20;99.90;;;;;;4981312;28;20042;-65
2023/05/20 07:18:11;;;;;;;2.22;0.30;;;16.30;99.90;;;;;;4980547;28;20883;-65
2023/05/20 07:20:37;;;;;;;2.55;0.45;;;16.40;99.90;;;;;;4964454;28;20046;-65
2023/05/20 07:23:03;;;;;;;1.42;0.43;;;16.40;99.90;;;;;;4963452;28;20038;-67
2023/05/20 07:25:29;;;;;;;3.38;0.40;;;16.50;99.90;;;;;;4981250;28;20563;-65
2023/05/20 07:27:55;;;;;;;2.67;0.32;;;16.70;99.90;;;;;;4966454;28;20034;-65
2023/05/20 07:30:21;;;;;;;1.50;0.40;;;16.70;99.90;;;;;;4979486;28;20049;-67
2023/05/20 07:32:47;;;;;;;1.75;0.38;;;16.70;99.90;;;;;;4981593;28;20469;-67
2023/05/20 07:35:12;;;;;;;1.52;0.30;;;16.90;99.90;;;;;;4978225;28;20125;-66
2023/05/20 07:37:38;;;;;;;1.85;0.40;;;16.90;99.90;;;;;;4968139;28;20066;-65
2023/05/20 07:40:06;;;;;;;2.72;0.30;;;17.00;99.90;;;;;;4963115;28;20049;-66
2023/05/20 07:42:31;;;;;;;1.13;0.30;;;17.20;99.90;;;;;;4954253;28;20391;-67
2023/05/20 07:44:57;;;;;;;1.52;0.40;;;17.20;99.90;;;;;;4974493;28;20034;-65
2023/05/20 07:47:23;;;;;;;1.45;0.30;;;17.40;42.60;;;;;;4981314;28;20478;-66
2023/05/20 07:49:49;;;;;;;2.65;0.40;;;17.50;21.00;;;;;;4973369;28;20042;-66
2023/05/20 07:52:14;;;;;;;3.20;0.40;;;17.60;91.90;;;;;;4990735;28;20100;-67
2023/05/20 07:54:40;;;;;;;2.38;0.38;;;17.60;40.20;;;;;;4974250;28;20598;-66
2023/05/20 07:57:06;;;;;;;1.40;0.30;;;17.90;55.60;;;;;;4958171;28;20471;-67
2023/05/20 07:59:32;;;;;;;1.90;0.30;;;18.00;1.00;;;;;;4990699;28;20832;-65
2023/05/20 08:01:57;;;;;;;3.35;0.30;;;18.10;1.00;;;;;;4990967;28;20049;-66
2023/05/20 08:04:23;;;;;;;1.17;0.30;;;18.20;1.00;;;;;;4990829;28;20251;-67
2023/05/20 08:06:49;;;;;;;1.98;0.30;;;18.20;1.00;;;;;;4990828;28;20054;-66
2023/05/20 08:09:15;;;;;;;2.08;0.32;;;18.30;1.00;;;;;;4974465;28;20042;-67
2023/05/20 08:11:40;;;;;;;1.92;0.30;;;18.30;1.00;;;;;;4974000;28;20060;-66
2023/05/20 08:14:06;;;;;;;3.50;0.40;;;18.40;99.90;;;;;;4974213;28;20050;-66
2023/05/20 08:16:32;;;;;;;2.60;0.20;;;18.40;1.00;;;;;;4974513;28;20053;-67
2023/05/20 08:18:57;;;;;;;1.40;0.47;;;18.60;99.90;;;;;;4974291;28;20049;-66
2023/05/20 08:21:23;;;;;;;3.65;0.40;;;18.70;1.00;;;;;;4974656;28;20069;-67
2023/05/20 08:23:49;;;;;;;3.20;0.43;;;18.80;1.00;;;;;;4976534;28;20204;-67
2023/05/20 08:26:14;;;;;;;1.20;0.30;;;19.00;1.00;;;;;;4955605;28;20083;-66
2023/05/20 08:28:40;;;;;;;3.08;0.32;;;19.10;1.00;;;;;;4955499;28;20058;-67
2023/05/20 08:31:06;;;;;;;2.80;0.30;;;19.20;99.90;;;;;;4971945;28;20481;-67
2023/05/20 08:33:31;;;;;;;4.95;0.40;;;19.20;99.90;;;;;;4990589;28;20042;-67
2023/05/20 08:35:57;;;;;;;1.05;0.30;;;19.30;99.90;;;;;;4974994;28;20054;-66
2023/05/20 08:38:23;;;;;;;2.65;0.30;;;19.50;99.90;;;;;;4974504;28;20496;-66
2023/05/20 08:40:55;;;;;;;1.02;0.30;;;19.50;99.90;;;;;;4990286;28;20048;-66
2023/05/20 08:43:22;;;;;;;1.38;0.30;;;19.70;99.90;;;;;;4989982;28;20050;-67
2023/05/20 08:45:50;;;;;;;1.05;0.30;;;19.70;99.90;;;;;;4973815;28;20053;-67
2023/05/20 08:48:17;;;;;;;2.30;0.30;;;19.90;99.90;;;;;;4972231;28;20042;-66
2023/05/20 08:50:47;;;;;;;1.80;0.30;;;19.90;99.90;;;;;;4955743;28;20563;-67
2023/05/20 08:53:13;;;;;;;2.40;0.30;;;19.90;99.90;;;;;;4960522;28;20145;-66
2023/05/20 08:55:47;;;;;;;4.03;0.63;;;19.80;99.90;;;;;;4961597;28;20161;-66
2023/05/20 08:58:15;;;;;;;2.25;0.50;;;19.80;99.90;;;;;;4979878;28;20046;-66
2023/05/20 09:00:41;;;;;;;2.53;0.40;;;20.00;99.90;;;;;;4984371;28;20680;-66
2023/05/20 09:03:06;;;;;;;3.25;0.50;;;20.00;99.90;;;;;;4982742;28;20154;-68
2023/05/20 09:05:33;;;;;;;2.17;0.40;;;20.10;99.90;;;;;;4982451;28;20034;-66
2023/05/20 09:08:09;;;;;;;2.67;0.38;;;20.10;99.90;;;;;;4966305;28;20372;-65
2023/05/20 09:10:36;;;;;;;1.52;0.40;;;20.20;99.90;;;;;;4982680;28;20535;-66
2023/05/20 09:13:03;;;;;;;4.10;0.50;;;20.20;99.90;;;;;;4982946;28;20314;-66
2023/05/20 09:15:29;;;;;;;2.00;0.40;;;20.40;99.90;;;;;;4982714;28;20042;-66
2023/05/20 09:17:58;;;;;;;1.42;0.40;;;20.50;99.90;;;;;;4950932;28;20058;-66
2023/05/20 09:20:24;;;;;;;4.43;0.70;;;20.60;99.90;;;;;;4982146;28;20089;-66
2023/05/20 09:22:53;;;;;;;3.53;0.40;;;20.50;99.90;;;;;;4982901;28;20046;-66
2023/05/20 09:25:21;;;;;;;1.92;0.32;;;20.70;99.90;;;;;;4982895;28;20045;-66
2023/05/20 09:27:48;;;;;;;7.97;0.50;;;20.60;99.90;;;;;;4982700;28;20046;-66
2023/05/20 09:30:17;;;;;;;3.22;0.50;;;20.70;99.90;;;;;;4982904;28;20396;-66
2023/05/20 09:32:43;;;;;;;3.22;0.47;;;20.70;99.90;;;;;;4966235;28;20046;-66
2023/05/20 09:35:12;;;;;;;2.88;0.50;;;20.60;99.90;;;;;;4981954;28;20034;-66
2023/05/20 09:37:42;;;;;;;3.10;0.50;;;20.90;99.90;;;;;;4981790;28;20103;-66
2023/05/20 09:40:11;;;;;;;2.35;0.50;;;21.00;99.90;;;;;;4982605;28;20583;-65
2023/05/20 09:43:01;;;;;;;1.77;0.47;;;21.10;99.90;;;;;;4966343;28;20054;-66
2023/05/20 09:45:27;;;;;;;1.85;0.57;;;21.20;99.90;;;;;;4966158;28;20057;-65
2023/05/20 09:47:53;;;;;;;2.75;0.40;;;21.30;99.90;;;;;;4983852;28;20473;-65
2023/05/20 09:50:22;;;;;;;2.95;0.52;;;21.10;99.90;;;;;;4967894;28;20050;-66
2023/05/20 09:52:49;;;;;;;3.28;0.50;;;21.20;99.90;;;;;;4966947;28;20129;-66
2023/05/20 09:55:17;;;;;;;2.05;0.40;;;21.00;99.90;;;;;;4966656;28;20282;-65
2023/05/20 09:57:43;;;;;;;5.43;0.40;;;21.10;99.90;;;;;;4982518;28;20504;-65
2023/05/20 10:00:12;;;;;;;3.50;0.60;;;21.30;99.90;;;;;;4981965;28;20054;-68
2023/05/20 10:02:42;;;;;;;4.25;0.65;;;21.60;99.90;;;;;;4982592;28;20078;-68
2023/05/20 10:05:15;;;;;;;3.30;0.50;;;21.90;99.90;;;;;;4980734;28;20058;-65
2023/05/20 10:08:30;;;;;;;2.53;0.40;;;21.70;99.90;;;;;;4964593;28;20042;-67
2023/05/20 10:11:16;;;;;;;1.08;0.35;;;21.80;99.90;;;;;;5005603;28;20109;-66
2023/05/20 10:14:05;;;;;;;2.08;0.43;;;21.90;99.90;;;;;;4965417;28;20042;-65
2023/05/20 10:16:47;;;;;;;3.42;0.50;;;21.70;99.90;;;;;;4964772;28;20571;-66
2023/05/20 10:19:29;;;;;;;3.13;0.60;;;21.50;99.90;;;;;;4980575;28;20472;-66
2023/05/20 10:22:05;;;;;;;4.85;0.70;;;21.70;99.90;;;;;;4963906;28;20480;-65
2023/05/20 10:24:33;;;;;;;3.80;0.60;;;21.60;99.90;;;;;;4979757;28;20050;-66
2023/05/20 10:27:02;;;;;;;4.70;0.85;;;21.40;99.90;;;;;;4980265;28;20043;-69
2023/05/20 10:29:28;;;;;;;1.58;0.50;;;21.70;99.90;;;;;;4982580;28;20046;-65
2023/05/20 10:31:54;;;;;;;3.60;0.90;;;22.00;99.90;;;;;;4982142;28;20042;-66
2023/05/20 10:34:21;;;;;;;4.15;0.77;;;21.70;99.90;;;;;;4981358;28;20508;-66
2023/05/20 10:36:53;;;;;;;3.42;0.90;;;21.80;99.90;;;;;;4966051;28;20142;-65
2023/05/20 10:39:28;;;;;;;4.97;1.00;;;21.70;99.90;;;;;;4981441;28;20071;-67
2023/05/20 10:42:07;;;;;;;2.35;0.80;;;21.80;99.90;;;;;;4965477;28;20055;-69
2023/05/20 10:45:00;;;;;;;4.50;0.70;;;21.80;99.90;;;;;;4980506;28;20153;-66
2023/05/20 10:47:25;;;;;;;2.47;0.70;;;21.10;99.90;;;;;;4994688;28;20432;-66
2023/05/20 10:49:51;;;;;;;4.35;0.73;;;21.10;99.90;;;;;;4964294;28;20199;-66
2023/05/20 10:52:17;;;;;;;4.35;0.80;;;20.90;99.90;;;;;;4980075;28;20497;-66
2023/05/20 10:54:53;;;;;;;2.03;0.47;;;20.70;99.90;;;;;;4980791;28;20042;-65
2023/05/20 10:57:20;;;;;;;3.88;0.75;;;21.20;99.90;;;;;;5013145;28;20060;-66
2023/05/20 10:59:46;;;;;;;5.30;0.80;;;21.50;99.90;;;;;;4980959;28;20235;-65
2023/05/20 11:02:15;;;;;;;3.80;0.98;;;21.40;1.00;;;;;;4981942;28;20100;-66
2023/05/20 11:04:44;;;;;;;8.10;0.95;;;21.50;1.00;;;;;;4981077;28;20046;-67
2023/05/20 11:07:10;;;;;;;4.68;0.93;;;21.50;99.90;;;;;;4980825;28;20404;-67
2023/05/20 11:09:36;;;;;;;5.00;1.30;;;21.40;1.00;;;;;;4963531;28;20278;-66
2023/05/20 11:12:02;;;;;;;4.57;1.20;;;21.00;1.00;;;;;;4989138;28;20416;-66
2023/05/20 11:14:28;;;;;;;5.28;1.48;;;20.60;1.00;;;;;;4973222;28;20369;-66
2023/05/20 11:16:59;;;;;;;4.75;1.10;;;20.40;1.00;;;;;;4956154;28;20129;-66
2023/05/20 11:19:28;;;;;;;7.32;1.27;;;20.80;1.00;;;;;;4991763;28;20489;-67
2023/05/20 11:21:54;;;;;;;3.88;0.98;;;20.70;21.60;;;;;;4976685;28;20559;-66
2023/05/20 11:24:25;;;;;;;5.40;1.52;;;20.40;1.00;;;;;;4961037;28;20046;-66
2023/05/20 11:26:51;;;;;;;3.25;1.00;;;20.20;38.10;;;;;;4982017;28;20100;-67
2023/05/20 11:29:18;;;;;;;6.97;1.30;;;20.50;99.90;;;;;;4968200;28;20085;-67
2023/05/20 11:31:46;;;;;;;6.65;1.25;;;21.10;92.20;;;;;;4985672;28;20037;-66
2023/05/20 11:34:11;;;;;;;7.03;1.10;;;21.20;3.40;;;;;;4969472;28;20570;-67
2023/05/20 11:36:43;;;;;;;5.82;1.10;;;21.60;5.70;;;;;;4965267;28;20050;-66
2023/05/20 11:39:12;;;;;;;5.50;1.20;;;21.40;6.10;;;;;;4970541;28;20054;-67
2023/05/20 11:41:38;;;;;;;4.40;1.05;;;21.00;8.10;;;;;;4956316;28;20051;-66
2023/05/20 11:44:04;;;;;;;2.92;1.15;;;20.60;19.80;;;;;;4972767;28;20065;-67
2023/05/20 11:46:30;;;;;;;4.43;1.38;;;20.20;64.20;;;;;;4972140;28;20049;-66
2023/05/20 11:48:56;;;;;;;5.63;1.50;;;20.00;99.90;;;;;;4972372;28;20242;-66
2023/05/20 11:51:29;;;;;;;3.85;1.40;;;19.90;99.90;;;;;;4956255;28;20069;-67
2023/05/20 11:54:02;;;;;;;5.80;1.45;;;19.70;99.90;;;;;;4957065;28;20602;-66
2023/05/20 11:56:29;;;;;;;4.55;1.83;;;19.40;99.90;;;;;;4972225;28;20522;-67
2023/05/20 11:59:00;;;;;;;3.63;1.10;;;19.70;99.90;;;;;;4939696;28;20096;-68
2023/05/20 12:01:28;;;;;;;4.00;1.35;;;20.10;99.90;;;;;;4955914;28;20034;-68
2023/05/20 12:03:54;;;;;;;4.53;1.40;;;20.00;99.90;;;;;;4989413;28;20046;-68
2023/05/20 12:06:20;;;;;;;4.13;1.48;;;20.30;99.90;;;;;;4972679;28;20399;-69
2023/05/20 12:08:46;;;;;;;4.35;1.33;;;20.30;99.90;;;;;;4973792;28;20046;-68
2023/05/20 12:11:12;;;;;;;2.85;1.65;;;20.20;99.90;;;;;;4972757;28;20481;-68
2023/05/20 12:13:39;;;;;;;4.97;1.33;;;20.00;99.90;;;;;;4955911;28;20082;-68
2023/05/20 12:16:05;;;;;;;3.85;1.67;;;20.20;99.90;;;;;;4938142;28;20473;-67
2023/05/20 12:18:32;;;;;;;5.00;1.52;;;20.10;99.90;;;;;;4956618;28;20049;-69
2023/05/20 12:20:58;;;;;;;5.65;1.42;;;20.40;99.90;;;;;;4957888;28;20660;-67
2023/05/20 12:23:25;;;;;;;3.75;1.50;;;20.90;99.90;;;;;;4973293;28;20456;-68
2023/05/20 12:25:51;;;;;;;4.47;1.70;;;21.30;99.90;;;;;;4977921;28;20079;-68
2023/05/20 12:28:16;;;;;;;5.45;1.73;;;21.00;85.60;;;;;;4956023;28;20034;-68
2023/05/20 12:30:42;;;;;;;4.57;1.55;;;20.70;99.90;;;;;;4957648;28;20300;-69
2023/05/20 12:33:08;;;;;;;5.22;1.75;;;20.50;99.90;;;;;;4971791;28;20436;-69
2023/05/20 12:35:40;;;;;;;2.92;1.60;;;20.40;99.90;;;;;;4955553;28;20158;-68
2023/05/20 12:38:06;;;;;;;4.68;1.45;;;20.60;30.10;;;;;;4955209;28;20054;-69
2023/05/20 12:40:33;;;;;;;2.88;0.90;;;20.60;99.90;;;;;;4950854;28;20324;-69
2023/05/20 12:43:00;;;;;;;1.88;0.63;;;21.00;73.20;;;;;;4946399;28;20282;-68
2023/05/20 12:45:26;;;;;;;1.95;0.70;;;21.00;1.00;;;;;;4969522;28;20568;-68
2023/05/20 12:47:54;;;;;;;2.75;0.70;;;20.90;99.90;;;;;;4986233;28;20084;-68